sensor_id;sensor_type;location;lat;lon;timestamp;P1;durP1;ratioP1;P2;durP2;ratioP2
48588;SDS011;34369;51.174;6.738;2024-02-15T00:01:31;35.30;;;32.90;;
48588;SDS011;34369;51.174;6.738;2024-02-15T00:04:03;34.53;;;32.13;;
48588;SDS011;34369;51.174;6.738;2024-02-15T00:06:36;34.28;;;31.92;;
48588;SDS011;34369;51.174;6.738;2024-02-15T00:09:08;35.22;;;32.53;;
48588;SDS011;34369;51.174;6.738;2024-02-15T00:11:40;36.97;;;34.58;;
48588;SDS011;34369;51.174;6.738;2024-02-15T00:14:12;35.40;;;33.00;;
48588;SDS011;34369;51.174;6.738;2024-02-15T00:16:46;34.95;;;32.55;;
48588;SDS011;34369;51.174;6.738;2024-02-15T00:19:18;35.35;;;32.63;;
48588;SDS011;34369;51.174;6.738;2024-02-15T00:21:51;34.22;;;31.75;;
48588;SDS011;34369;51.174;6.738;2024-02-15T00:24:25;35.58;;;33.28;;
48588;SDS011;34369;51.174;6.738;2024-02-15T00:27:00;35.97;;;33.42;;
48588;SDS011;34369;51.174;6.738;2024-02-15T00:29:33;36.22;;;33.83;;
48588;SDS011;34369;51.174;6.738;2024-02-15T00:32:06;35.90;;;33.45;;
48588;SDS011;34369;51.174;6.738;2024-02-15T00:34:41;37.10;;;34.38;;
48588;SDS011;34369;51.174;6.738;2024-02-15T00:37:13;35.70;;;33.20;;
48588;SDS011;34369;51.174;6.738;2024-02-15T00:39:46;35.17;;;32.67;;
48588;SDS011;34369;51.174;6.738;2024-02-15T00:42:18;36.10;;;33.75;;
48588;SDS011;34369;51.174;6.738;2024-02-15T00:44:50;36.20;;;33.60;;
48588;SDS011;34369;51.174;6.738;2024-02-15T00:47:24;35.42;;;32.92;;
48588;SDS011;34369;51.174;6.738;2024-02-15T00:49:58;35.73;;;33.43;;
48588;SDS011;34369;51.174;6.738;2024-02-15T00:52:30;35.70;;;33.20;;
48588;SDS011;34369;51.174;6.738;2024-02-15T00:55:02;34.95;;;32.60;;
48588;SDS011;34369;51.174;6.738;2024-02-15T00:57:35;35.30;;;32.80;;
48588;SDS011;34369;51.174;6.738;2024-02-15T01:00:08;35.15;;;32.67;;
48588;SDS011;34369;51.174;6.738;2024-02-15T01:02:42;35.70;;;33.15;;
48588;SDS011;34369;51.174;6.738;2024-02-15T01:05:15;35.22;;;32.83;;
48588;SDS011;34369;51.174;6.738;2024-02-15T01:07:48;35.60;;;33.00;;
48588;SDS011;34369;51.174;6.738;2024-02-15T01:10:21;34.85;;;32.45;;
48588;SDS011;34369;51.174;6.738;2024-02-15T01:12:54;35.72;;;33.20;;
48588;SDS011;34369;51.174;6.738;2024-02-15T01:15:27;35.33;;;32.92;;
48588;SDS011;34369;51.174;6.738;2024-02-15T01:18:01;35.60;;;33.10;;
48588;SDS011;34369;51.174;6.738;2024-02-15T01:20:34;34.63;;;32.08;;
48588;SDS011;34369;51.174;6.738;2024-02-15T01:23:06;34.80;;;32.40;;
48588;SDS011;34369;51.174;6.738;2024-02-15T01:25:38;34.35;;;31.95;;
48588;SDS011;34369;51.174;6.738;2024-02-15T01:28:11;35.22;;;32.72;;
48588;SDS011;34369;51.174;6.738;2024-02-15T01:30:43;34.72;;;32.42;;
48588;SDS011;34369;51.174;6.738;2024-02-15T01:33:18;35.13;;;32.67;;
48588;SDS011;34369;51.174;6.738;2024-02-15T01:35:50;34.70;;;32.20;;
48588;SDS011;34369;51.174;6.738;2024-02-15T01:38:22;35.22;;;32.72;;
48588;SDS011;34369;51.174;6.738;2024-02-15T01:40:57;34.97;;;32.65;;
48588;SDS011;34369;51.174;6.738;2024-02-15T01:43:29;34.33;;;31.95;;
48588;SDS011;34369;51.174;6.738;2024-02-15T01:46:01;35.15;;;32.75;;
48588;SDS011;34369;51.174;6.738;2024-02-15T01:48:40;34.78;;;32.38;;
48588;SDS011;34369;51.174;6.738;2024-02-15T01:51:13;34.55;;;32.15;;
48588;SDS011;34369;51.174;6.738;2024-02-15T01:53:46;34.42;;;32.13;;
48588;SDS011;34369;51.174;6.738;2024-02-15T01:56:18;35.05;;;32.63;;
48588;SDS011;34369;51.174;6.738;2024-02-15T01:58:51;34.92;;;32.53;;
48588;SDS011;34369;51.174;6.738;2024-02-15T02:01:24;35.38;;;32.97;;
48588;SDS011;34369;51.174;6.738;2024-02-15T02:03:58;35.72;;;33.25;;
48588;SDS011;34369;51.174;6.738;2024-02-15T02:06:32;35.72;;;32.90;;
48588;SDS011;34369;51.174;6.738;2024-02-15T02:09:06;34.90;;;32.70;;
48588;SDS011;34369;51.174;6.738;2024-02-15T02:11:44;35.63;;;33.42;;
48588;SDS011;34369;51.174;6.738;2024-02-15T02:14:18;34.40;;;32.10;;
48588;SDS011;34369;51.174;6.738;2024-02-15T02:16:50;34.42;;;32.17;;
48588;SDS011;34369;51.174;6.738;2024-02-15T02:19:25;34.78;;;32.50;;
48588;SDS011;34369;51.174;6.738;2024-02-15T02:21:58;35.80;;;33.40;;
48588;SDS011;34369;51.174;6.738;2024-02-15T02:24:30;35.97;;;33.47;;
48588;SDS011;34369;51.174;6.738;2024-02-15T02:27:09;35.70;;;33.25;;
48588;SDS011;34369;51.174;6.738;2024-02-15T02:29:42;35.60;;;33.20;;
48588;SDS011;34369;51.174;6.738;2024-02-15T02:32:16;35.20;;;32.67;;
48588;SDS011;34369;51.174;6.738;2024-02-15T02:34:48;34.53;;;32.22;;
48588;SDS011;34369;51.174;6.738;2024-02-15T02:37:20;35.22;;;32.85;;
48588;SDS011;34369;51.174;6.738;2024-02-15T02:39:53;35.47;;;32.95;;
48588;SDS011;34369;51.174;6.738;2024-02-15T02:42:26;34.88;;;32.63;;
48588;SDS011;34369;51.174;6.738;2024-02-15T02:44:58;35.47;;;32.97;;
48588;SDS011;34369;51.174;6.738;2024-02-15T02:47:30;36.28;;;33.90;;
48588;SDS011;34369;51.174;6.738;2024-02-15T02:50:03;34.83;;;32.33;;
48588;SDS011;34369;51.174;6.738;2024-02-15T02:52:38;34.95;;;32.55;;
48588;SDS011;34369;51.174;6.738;2024-02-15T02:55:10;36.08;;;33.47;;
48588;SDS011;34369;51.174;6.738;2024-02-15T02:57:44;35.03;;;32.70;;
48588;SDS011;34369;51.174;6.738;2024-02-15T03:00:17;35.67;;;33.05;;
48588;SDS011;34369;51.174;6.738;2024-02-15T03:02:50;35.83;;;33.22;;
48588;SDS011;34369;51.174;6.738;2024-02-15T03:05:22;36.40;;;34.03;;
48588;SDS011;34369;51.174;6.738;2024-02-15T03:07:54;34.65;;;32.35;;
48588;SDS011;34369;51.174;6.738;2024-02-15T03:10:28;35.53;;;32.80;;
48588;SDS011;34369;51.174;6.738;2024-02-15T03:13:02;35.53;;;33.05;;
48588;SDS011;34369;51.174;6.738;2024-02-15T03:15:35;34.42;;;32.03;;
48588;SDS011;34369;51.174;6.738;2024-02-15T03:18:07;36.30;;;33.88;;
48588;SDS011;34369;51.174;6.738;2024-02-15T03:20:39;36.47;;;33.65;;
48588;SDS011;34369;51.174;6.738;2024-02-15T03:23:12;35.88;;;33.50;;
48588;SDS011;34369;51.174;6.738;2024-02-15T03:25:44;35.25;;;33.05;;
48588;SDS011;34369;51.174;6.738;2024-02-15T03:28:17;34.90;;;32.70;;
48588;SDS011;34369;51.174;6.738;2024-02-15T03:30:51;34.83;;;32.42;;
48588;SDS011;34369;51.174;6.738;2024-02-15T03:33:23;34.67;;;32.38;;
48588;SDS011;34369;51.174;6.738;2024-02-15T03:36:02;36.67;;;34.38;;
48588;SDS011;34369;51.174;6.738;2024-02-15T03:38:36;34.72;;;32.63;;
48588;SDS011;34369;51.174;6.738;2024-02-15T03:41:08;34.42;;;32.05;;
48588;SDS011;34369;51.174;6.738;2024-02-15T03:43:42;35.92;;;33.63;;
48588;SDS011;34369;51.174;6.738;2024-02-15T03:46:14;35.70;;;33.40;;
48588;SDS011;34369;51.174;6.738;2024-02-15T03:48:46;35.47;;;33.13;;
48588;SDS011;34369;51.174;6.738;2024-02-15T03:51:19;35.20;;;33.00;;
48588;SDS011;34369;51.174;6.738;2024-02-15T03:53:53;34.60;;;32.50;;
48588;SDS011;34369;51.174;6.738;2024-02-15T03:56:25;35.58;;;33.38;;
48588;SDS011;34369;51.174;6.738;2024-02-15T03:59:00;34.63;;;32.42;;
48588;SDS011;34369;51.174;6.738;2024-02-15T04:01:34;34.95;;;32.83;;
48588;SDS011;34369;51.174;6.738;2024-02-15T04:04:09;35.53;;;33.38;;
48588;SDS011;34369;51.174;6.738;2024-02-15T04:06:41;34.60;;;32.50;;
48588;SDS011;34369;51.174;6.738;2024-02-15T04:09:13;35.22;;;33.00;;
48588;SDS011;34369;51.174;6.738;2024-02-15T04:11:47;34.80;;;32.70;;
48588;SDS011;34369;51.174;6.738;2024-02-15T04:14:24;34.65;;;32.55;;
48588;SDS011;34369;51.174;6.738;2024-02-15T04:16:56;34.85;;;32.72;;
48588;SDS011;34369;51.174;6.738;2024-02-15T04:19:29;34.90;;;32.80;;
48588;SDS011;34369;51.174;6.738;2024-02-15T04:22:02;35.30;;;33.00;;
48588;SDS011;34369;51.174;6.738;2024-02-15T04:24:37;35.50;;;33.30;;
48588;SDS011;34369;51.174;6.738;2024-02-15T04:27:09;36.28;;;33.78;;
48588;SDS011;34369;51.174;6.738;2024-02-15T04:29:45;35.58;;;33.38;;
48588;SDS011;34369;51.174;6.738;2024-02-15T04:32:17;37.00;;;34.70;;
48588;SDS011;34369;51.174;6.738;2024-02-15T04:34:49;35.97;;;33.65;;
48588;SDS011;34369;51.174;6.738;2024-02-15T04:37:24;36.92;;;34.53;;
48588;SDS011;34369;51.174;6.738;2024-02-15T04:39:57;35.65;;;33.38;;
48588;SDS011;34369;51.174;6.738;2024-02-15T04:42:38;36.75;;;34.35;;
48588;SDS011;34369;51.174;6.738;2024-02-15T04:45:13;36.42;;;34.13;;
48588;SDS011;34369;51.174;6.738;2024-02-15T04:47:46;37.25;;;34.92;;
48588;SDS011;34369;51.174;6.738;2024-02-15T04:50:21;37.35;;;34.72;;
48588;SDS011;34369;51.174;6.738;2024-02-15T04:52:55;35.72;;;33.55;;
48588;SDS011;34369;51.174;6.738;2024-02-15T04:55:30;35.95;;;33.65;;
48588;SDS011;34369;51.174;6.738;2024-02-15T04:58:02;35.30;;;33.10;;
48588;SDS011;34369;51.174;6.738;2024-02-15T05:00:37;34.90;;;32.80;;
48588;SDS011;34369;51.174;6.738;2024-02-15T05:03:09;35.53;;;33.28;;
48588;SDS011;34369;51.174;6.738;2024-02-15T05:05:42;35.30;;;33.10;;
48588;SDS011;34369;51.174;6.738;2024-02-15T05:08:14;36.72;;;34.45;;
48588;SDS011;34369;51.174;6.738;2024-02-15T05:10:46;35.38;;;33.17;;
48588;SDS011;34369;51.174;6.738;2024-02-15T05:13:20;35.15;;;32.95;;
48588;SDS011;34369;51.174;6.738;2024-02-15T05:15:53;36.38;;;34.08;;
48588;SDS011;34369;51.174;6.738;2024-02-15T05:18:25;36.20;;;33.72;;
48588;SDS011;34369;51.174;6.738;2024-02-15T05:21:00;36.35;;;33.95;;
48588;SDS011;34369;51.174;6.738;2024-02-15T05:23:33;35.97;;;33.70;;
48588;SDS011;34369;51.174;6.738;2024-02-15T05:26:05;36.13;;;33.83;;
48588;SDS011;34369;51.174;6.738;2024-02-15T05:28:38;35.08;;;32.78;;
48588;SDS011;34369;51.174;6.738;2024-02-15T05:31:12;35.20;;;33.03;;
48588;SDS011;34369;51.174;6.738;2024-02-15T05:33:47;34.92;;;32.72;;
48588;SDS011;34369;51.174;6.738;2024-02-15T05:36:20;36.60;;;34.38;;
48588;SDS011;34369;51.174;6.738;2024-02-15T05:38:55;37.63;;;35.17;;
48588;SDS011;34369;51.174;6.738;2024-02-15T05:41:28;35.72;;;33.45;;
48588;SDS011;34369;51.174;6.738;2024-02-15T05:44:02;35.60;;;33.50;;
48588;SDS011;34369;51.174;6.738;2024-02-15T05:46:38;35.85;;;33.58;;
48588;SDS011;34369;51.174;6.738;2024-02-15T05:49:10;36.90;;;34.58;;
48588;SDS011;34369;51.174;6.738;2024-02-15T05:51:46;36.78;;;34.38;;
48588;SDS011;34369;51.174;6.738;2024-02-15T05:54:18;35.90;;;33.75;;
48588;SDS011;34369;51.174;6.738;2024-02-15T05:56:52;35.80;;;33.40;;
48588;SDS011;34369;51.174;6.738;2024-02-15T05:59:25;36.42;;;34.13;;
48588;SDS011;34369;51.174;6.738;2024-02-15T06:01:59;35.95;;;33.75;;
48588;SDS011;34369;51.174;6.738;2024-02-15T06:04:33;35.90;;;33.65;;
48588;SDS011;34369;51.174;6.738;2024-02-15T06:07:05;35.47;;;32.80;;
48588;SDS011;34369;51.174;6.738;2024-02-15T06:09:39;35.58;;;33.38;;
48588;SDS011;34369;51.174;6.738;2024-02-15T06:12:12;34.97;;;32.78;;
48588;SDS011;34369;51.174;6.738;2024-02-15T06:14:46;35.88;;;33.58;;
48588;SDS011;34369;51.174;6.738;2024-02-15T06:17:20;35.40;;;33.13;;
48588;SDS011;34369;51.174;6.738;2024-02-15T06:19:52;35.25;;;33.05;;
48588;SDS011;34369;51.174;6.738;2024-02-15T06:22:24;35.70;;;33.40;;
48588;SDS011;34369;51.174;6.738;2024-02-15T06:24:57;36.00;;;33.50;;
48588;SDS011;34369;51.174;6.738;2024-02-15T06:27:31;35.20;;;33.00;;
48588;SDS011;34369;51.174;6.738;2024-02-15T06:30:04;35.65;;;33.35;;
48588;SDS011;34369;51.174;6.738;2024-02-15T06:32:57;35.90;;;33.60;;
48588;SDS011;34369;51.174;6.738;2024-02-15T06:35:47;35.40;;;33.20;;
48588;SDS011;34369;51.174;6.738;2024-02-15T06:38:36;35.70;;;33.28;;
48588;SDS011;34369;51.174;6.738;2024-02-15T06:41:27;35.95;;;33.55;;
48588;SDS011;34369;51.174;6.738;2024-02-15T06:43:59;35.58;;;33.28;;
48588;SDS011;34369;51.174;6.738;2024-02-15T06:46:32;36.10;;;33.70;;
48588;SDS011;34369;51.174;6.738;2024-02-15T06:49:05;37.05;;;34.53;;
48588;SDS011;34369;51.174;6.738;2024-02-15T06:51:37;36.30;;;34.00;;
48588;SDS011;34369;51.174;6.738;2024-02-15T06:54:10;36.42;;;34.15;;
48588;SDS011;34369;51.174;6.738;2024-02-15T06:56:42;36.90;;;34.60;;
48588;SDS011;34369;51.174;6.738;2024-02-15T06:59:16;35.75;;;33.35;;
48588;SDS011;34369;51.174;6.738;2024-02-15T07:01:49;37.22;;;34.85;;
48588;SDS011;34369;51.174;6.738;2024-02-15T07:04:23;36.47;;;34.17;;
48588;SDS011;34369;51.174;6.738;2024-02-15T07:06:56;36.22;;;33.83;;
48588;SDS011;34369;51.174;6.738;2024-02-15T07:09:30;36.22;;;33.80;;
48588;SDS011;34369;51.174;6.738;2024-02-15T07:12:02;36.38;;;33.90;;
48588;SDS011;34369;51.174;6.738;2024-02-15T07:14:35;36.33;;;33.83;;
48588;SDS011;34369;51.174;6.738;2024-02-15T07:17:08;36.95;;;34.35;;
48588;SDS011;34369;51.174;6.738;2024-02-15T07:19:42;35.15;;;32.85;;
48588;SDS011;34369;51.174;6.738;2024-02-15T07:22:15;36.47;;;33.78;;
48588;SDS011;34369;51.174;6.738;2024-02-15T07:24:47;35.75;;;33.22;;
48588;SDS011;34369;51.174;6.738;2024-02-15T07:27:21;36.20;;;33.70;;
48588;SDS011;34369;51.174;6.738;2024-02-15T07:29:55;35.60;;;33.13;;
48588;SDS011;34369;51.174;6.738;2024-02-15T07:32:28;36.08;;;33.53;;
48588;SDS011;34369;51.174;6.738;2024-02-15T07:35:07;36.15;;;33.58;;
48588;SDS011;34369;51.174;6.738;2024-02-15T07:37:42;35.72;;;33.42;;
48588;SDS011;34369;51.174;6.738;2024-02-15T07:40:28;36.10;;;33.45;;
48588;SDS011;34369;51.174;6.738;2024-02-15T07:43:02;35.97;;;33.67;;
48588;SDS011;34369;51.174;6.738;2024-02-15T07:45:36;36.83;;;34.20;;
48588;SDS011;34369;51.174;6.738;2024-02-15T07:48:08;36.17;;;33.78;;
48588;SDS011;34369;51.174;6.738;2024-02-15T07:50:44;35.33;;;33.03;;
48588;SDS011;34369;51.174;6.738;2024-02-15T07:53:17;36.67;;;34.13;;
48588;SDS011;34369;51.174;6.738;2024-02-15T07:55:51;36.28;;;33.85;;
48588;SDS011;34369;51.174;6.738;2024-02-15T07:58:23;36.25;;;33.72;;
48588;SDS011;34369;51.174;6.738;2024-02-15T08:00:55;36.00;;;33.53;;
48588;SDS011;34369;51.174;6.738;2024-02-15T08:03:27;36.67;;;34.17;;
48588;SDS011;34369;51.174;6.738;2024-02-15T08:06:02;35.67;;;33.28;;
48588;SDS011;34369;51.174;6.738;2024-02-15T08:08:37;36.55;;;34.13;;
48588;SDS011;34369;51.174;6.738;2024-02-15T08:11:11;36.10;;;33.75;;
48588;SDS011;34369;51.174;6.738;2024-02-15T08:13:46;36.88;;;34.38;;
48588;SDS011;34369;51.174;6.738;2024-02-15T08:16:20;36.88;;;34.28;;
48588;SDS011;34369;51.174;6.738;2024-02-15T08:18:54;35.90;;;33.40;;
48588;SDS011;34369;51.174;6.738;2024-02-15T08:21:29;36.83;;;34.33;;
48588;SDS011;34369;51.174;6.738;2024-02-15T08:26:39;36.17;;;33.75;;
48588;SDS011;34369;51.174;6.738;2024-02-15T08:29:12;36.17;;;33.70;;
48588;SDS011;34369;51.174;6.738;2024-02-15T08:31:45;37.70;;;35.17;;
48588;SDS011;34369;51.174;6.738;2024-02-15T08:34:19;36.45;;;34.05;;
48588;SDS011;34369;51.174;6.738;2024-02-15T08:36:52;36.50;;;33.90;;
48588;SDS011;34369;51.174;6.738;2024-02-15T08:39:25;37.40;;;34.70;;
48588;SDS011;34369;51.174;6.738;2024-02-15T08:41:58;36.40;;;34.00;;
48588;SDS011;34369;51.174;6.738;2024-02-15T08:44:30;37.58;;;35.05;;
48588;SDS011;34369;51.174;6.738;2024-02-15T08:47:03;36.28;;;33.97;;
48588;SDS011;34369;51.174;6.738;2024-02-15T08:49:36;35.65;;;33.25;;
48588;SDS011;34369;51.174;6.738;2024-02-15T08:52:12;36.25;;;33.75;;
48588;SDS011;34369;51.174;6.738;2024-02-15T08:54:45;36.83;;;34.33;;
48588;SDS011;34369;51.174;6.738;2024-02-15T08:57:17;37.95;;;35.45;;
48588;SDS011;34369;51.174;6.738;2024-02-15T08:59:51;36.22;;;33.83;;
48588;SDS011;34369;51.174;6.738;2024-02-15T09:02:23;38.30;;;35.50;;
48588;SDS011;34369;51.174;6.738;2024-02-15T09:04:56;37.60;;;35.17;;
48588;SDS011;34369;51.174;6.738;2024-02-15T09:07:30;37.75;;;35.17;;
48588;SDS011;34369;51.174;6.738;2024-02-15T09:10:03;36.83;;;34.22;;
48588;SDS011;34369;51.174;6.738;2024-02-15T09:12:38;35.58;;;33.28;;
48588;SDS011;34369;51.174;6.738;2024-02-15T09:15:17;37.40;;;34.80;;
48588;SDS011;34369;51.174;6.738;2024-02-15T09:17:49;35.95;;;33.60;;
48588;SDS011;34369;51.174;6.738;2024-02-15T09:20:24;36.55;;;34.05;;
48588;SDS011;34369;51.174;6.738;2024-02-15T09:23:00;35.72;;;33.03;;
48588;SDS011;34369;51.174;6.738;2024-02-15T09:25:39;35.85;;;33.35;;
48588;SDS011;34369;51.174;6.738;2024-02-15T09:28:14;34.92;;;32.67;;
48588;SDS011;34369;51.174;6.738;2024-02-15T09:30:49;35.30;;;32.90;;
48588;SDS011;34369;51.174;6.738;2024-02-15T09:33:22;34.85;;;32.50;;
48588;SDS011;34369;51.174;6.738;2024-02-15T09:35:57;36.73;;;34.33;;
48588;SDS011;34369;51.174;6.738;2024-02-15T09:38:32;35.72;;;33.42;;
48588;SDS011;34369;51.174;6.738;2024-02-15T09:41:06;35.65;;;33.15;;
48588;SDS011;34369;51.174;6.738;2024-02-15T09:43:39;36.08;;;33.67;;
48588;SDS011;34369;51.174;6.738;2024-02-15T09:46:13;36.08;;;33.58;;
48588;SDS011;34369;51.174;6.738;2024-02-15T09:48:49;34.85;;;32.45;;
48588;SDS011;34369;51.174;6.738;2024-02-15T09:51:28;34.55;;;32.13;;
48588;SDS011;34369;51.174;6.738;2024-02-15T09:54:04;36.70;;;34.05;;
48588;SDS011;34369;51.174;6.738;2024-02-15T09:56:41;34.05;;;31.85;;
48588;SDS011;34369;51.174;6.738;2024-02-15T09:59:13;35.53;;;32.92;;
48588;SDS011;34369;51.174;6.738;2024-02-15T10:01:46;34.67;;;32.30;;
48588;SDS011;34369;51.174;6.738;2024-02-15T10:04:20;35.17;;;32.78;;
48588;SDS011;34369;51.174;6.738;2024-02-15T10:06:52;34.83;;;32.53;;
48588;SDS011;34369;51.174;6.738;2024-02-15T10:09:37;35.03;;;32.72;;
48588;SDS011;34369;51.174;6.738;2024-02-15T10:12:13;35.58;;;33.28;;
48588;SDS011;34369;51.174;6.738;2024-02-15T10:14:51;34.63;;;32.13;;
48588;SDS011;34369;51.174;6.738;2024-02-15T10:17:25;35.90;;;33.40;;
48588;SDS011;34369;51.174;6.738;2024-02-15T10:20:05;34.33;;;32.03;;
48588;SDS011;34369;51.174;6.738;2024-02-15T10:22:40;34.63;;;32.28;;
48588;SDS011;34369;51.174;6.738;2024-02-15T10:25:13;34.47;;;32.17;;
48588;SDS011;34369;51.174;6.738;2024-02-15T10:27:49;34.60;;;32.40;;
48588;SDS011;34369;51.174;6.738;2024-02-15T10:30:22;35.03;;;32.60;;
48588;SDS011;34369;51.174;6.738;2024-02-15T10:32:56;35.72;;;33.15;;
48588;SDS011;34369;51.174;6.738;2024-02-15T10:35:29;35.72;;;33.40;;
48588;SDS011;34369;51.174;6.738;2024-02-15T10:38:05;35.05;;;32.65;;
48588;SDS011;34369;51.174;6.738;2024-02-15T10:40:42;34.30;;;32.10;;
48588;SDS011;34369;51.174;6.738;2024-02-15T10:43:16;34.60;;;32.20;;
48588;SDS011;34369;51.174;6.738;2024-02-15T10:45:49;35.05;;;32.75;;
48588;SDS011;34369;51.174;6.738;2024-02-15T10:48:24;34.08;;;31.67;;
48588;SDS011;34369;51.174;6.738;2024-02-15T10:50:58;34.15;;;31.60;;
48588;SDS011;34369;51.174;6.738;2024-02-15T10:53:32;33.95;;;31.65;;
48588;SDS011;34369;51.174;6.738;2024-02-15T10:56:14;33.67;;;31.35;;
48588;SDS011;34369;51.174;6.738;2024-02-15T10:58:55;33.40;;;31.00;;
48588;SDS011;34369;51.174;6.738;2024-02-15T11:01:39;32.65;;;30.45;;
48588;SDS011;34369;51.174;6.738;2024-02-15T11:04:14;32.90;;;30.73;;
48588;SDS011;34369;51.174;6.738;2024-02-15T11:06:47;33.53;;;31.30;;
48588;SDS011;34369;51.174;6.738;2024-02-15T11:09:22;32.28;;;30.02;;
48588;SDS011;34369;51.174;6.738;2024-02-15T11:11:56;33.03;;;30.73;;
48588;SDS011;34369;51.174;6.738;2024-02-15T11:14:31;33.35;;;31.05;;
48588;SDS011;34369;51.174;6.738;2024-02-15T11:17:04;32.40;;;30.20;;
48588;SDS011;34369;51.174;6.738;2024-02-15T11:19:40;32.55;;;30.15;;
48588;SDS011;34369;51.174;6.738;2024-02-15T11:22:16;32.92;;;30.73;;
48588;SDS011;34369;51.174;6.738;2024-02-15T11:24:50;32.40;;;30.20;;
48588;SDS011;34369;51.174;6.738;2024-02-15T11:27:26;32.28;;;30.17;;
48588;SDS011;34369;51.174;6.738;2024-02-15T11:29:59;32.47;;;30.23;;
48588;SDS011;34369;51.174;6.738;2024-02-15T11:32:40;31.88;;;29.67;;
48588;SDS011;34369;51.174;6.738;2024-02-15T11:35:18;32.10;;;29.90;;
48588;SDS011;34369;51.174;6.738;2024-02-15T11:37:56;32.87;;;30.57;;
48588;SDS011;34369;51.174;6.738;2024-02-15T11:43:51;32.30;;;30.00;;
48588;SDS011;34369;51.174;6.738;2024-02-15T11:46:28;32.42;;;30.23;;
48588;SDS011;34369;51.174;6.738;2024-02-15T11:49:02;32.53;;;30.33;;
48588;SDS011;34369;51.174;6.738;2024-02-15T11:51:37;30.75;;;28.70;;
48588;SDS011;34369;51.174;6.738;2024-02-15T11:54:12;31.90;;;29.80;;
48588;SDS011;34369;51.174;6.738;2024-02-15T11:56:48;30.33;;;28.23;;
48588;SDS011;34369;51.174;6.738;2024-02-15T11:59:41;31.08;;;28.80;;
48588;SDS011;34369;51.174;6.738;2024-02-15T12:02:43;31.02;;;28.73;;
48588;SDS011;34369;51.174;6.738;2024-02-15T12:05:32;30.90;;;28.80;;
48588;SDS011;34369;51.174;6.738;2024-02-15T12:08:22;30.75;;;28.67;;
48588;SDS011;34369;51.174;6.738;2024-02-15T12:11:13;30.42;;;28.42;;
48588;SDS011;34369;51.174;6.738;2024-02-15T12:14:03;30.77;;;28.65;;
48588;SDS011;34369;51.174;6.738;2024-02-15T12:17:03;31.02;;;28.95;;
48588;SDS011;34369;51.174;6.738;2024-02-15T12:19:55;29.90;;;27.90;;
48588;SDS011;34369;51.174;6.738;2024-02-15T12:22:42;30.20;;;28.20;;
48588;SDS011;34369;51.174;6.738;2024-02-15T12:25:17;29.58;;;27.58;;
48588;SDS011;34369;51.174;6.738;2024-02-15T12:27:54;29.77;;;27.77;;
48588;SDS011;34369;51.174;6.738;2024-02-15T12:30:32;29.10;;;27.20;;
48588;SDS011;34369;51.174;6.738;2024-02-15T12:33:11;30.13;;;28.05;;
48588;SDS011;34369;51.174;6.738;2024-02-15T12:35:50;29.13;;;27.15;;
48588;SDS011;34369;51.174;6.738;2024-02-15T12:38:22;29.70;;;27.60;;
48588;SDS011;34369;51.174;6.738;2024-02-15T12:40:55;29.20;;;27.20;;
48588;SDS011;34369;51.174;6.738;2024-02-15T12:43:27;29.83;;;27.63;;
48588;SDS011;34369;51.174;6.738;2024-02-15T12:46:00;30.05;;;27.85;;
48588;SDS011;34369;51.174;6.738;2024-02-15T12:48:37;29.70;;;27.70;;
48588;SDS011;34369;51.174;6.738;2024-02-15T12:51:15;29.85;;;27.90;;
48588;SDS011;34369;51.174;6.738;2024-02-15T12:53:48;30.45;;;28.23;;
48588;SDS011;34369;51.174;6.738;2024-02-15T12:56:20;30.23;;;28.15;;
48588;SDS011;34369;51.174;6.738;2024-02-15T12:58:54;29.63;;;27.58;;
48588;SDS011;34369;51.174;6.738;2024-02-15T13:01:26;29.58;;;27.67;;
48588;SDS011;34369;51.174;6.738;2024-02-15T13:04:01;29.77;;;27.75;;
48588;SDS011;34369;51.174;6.738;2024-02-15T13:06:36;32.08;;;29.08;;
48588;SDS011;34369;51.174;6.738;2024-02-15T13:09:08;31.10;;;29.05;;
48588;SDS011;34369;51.174;6.738;2024-02-15T13:11:43;30.35;;;28.10;;
48588;SDS011;34369;51.174;6.738;2024-02-15T13:14:17;29.85;;;27.88;;
48588;SDS011;34369;51.174;6.738;2024-02-15T13:16:50;30.45;;;28.35;;
48588;SDS011;34369;51.174;6.738;2024-02-15T13:19:24;31.63;;;29.52;;
48588;SDS011;34369;51.174;6.738;2024-02-15T13:21:58;31.23;;;29.13;;
48588;SDS011;34369;51.174;6.738;2024-02-15T13:24:31;31.55;;;29.35;;
48588;SDS011;34369;51.174;6.738;2024-02-15T13:27:03;31.10;;;28.90;;
48588;SDS011;34369;51.174;6.738;2024-02-15T13:29:36;31.95;;;29.75;;
48588;SDS011;34369;51.174;6.738;2024-02-15T13:32:08;30.40;;;28.23;;
48588;SDS011;34369;51.174;6.738;2024-02-15T13:34:44;30.77;;;28.67;;
48588;SDS011;34369;51.174;6.738;2024-02-15T13:37:17;30.48;;;28.17;;
48588;SDS011;34369;51.174;6.738;2024-02-15T13:39:51;30.13;;;28.00;;
48588;SDS011;34369;51.174;6.738;2024-02-15T13:42:23;31.27;;;29.10;;
48588;SDS011;34369;51.174;6.738;2024-02-15T13:44:57;30.48;;;28.40;;
48588;SDS011;34369;51.174;6.738;2024-02-15T13:47:29;29.95;;;27.95;;
48588;SDS011;34369;51.174;6.738;2024-02-15T13:50:03;29.98;;;27.98;;
48588;SDS011;34369;51.174;6.738;2024-02-15T13:52:37;30.20;;;28.10;;
48588;SDS011;34369;51.174;6.738;2024-02-15T13:55:12;29.58;;;27.58;;
48588;SDS011;34369;51.174;6.738;2024-02-15T13:57:48;29.90;;;27.80;;
48588;SDS011;34369;51.174;6.738;2024-02-15T14:00:21;30.17;;;28.05;;
48588;SDS011;34369;51.174;6.738;2024-02-15T14:03:00;29.90;;;27.73;;
48588;SDS011;34369;51.174;6.738;2024-02-15T14:05:38;30.13;;;28.02;;
48588;SDS011;34369;51.174;6.738;2024-02-15T14:08:12;30.65;;;28.48;;
48588;SDS011;34369;51.174;6.738;2024-02-15T14:10:45;30.40;;;28.13;;
48588;SDS011;34369;51.174;6.738;2024-02-15T14:13:17;29.95;;;27.95;;
48588;SDS011;34369;51.174;6.738;2024-02-15T14:15:52;29.45;;;27.50;;
48588;SDS011;34369;51.174;6.738;2024-02-15T14:18:25;28.90;;;26.92;;
48588;SDS011;34369;51.174;6.738;2024-02-15T14:20:59;29.55;;;27.42;;
48588;SDS011;34369;51.174;6.738;2024-02-15T14:23:32;30.02;;;28.08;;
48588;SDS011;34369;51.174;6.738;2024-02-15T14:26:06;30.05;;;27.80;;
48588;SDS011;34369;51.174;6.738;2024-02-15T14:28:38;29.33;;;27.13;;
48588;SDS011;34369;51.174;6.738;2024-02-15T14:31:12;30.17;;;27.70;;
48588;SDS011;34369;51.174;6.738;2024-02-15T14:34:06;29.13;;;27.13;;
48588;SDS011;34369;51.174;6.738;2024-02-15T14:36:42;29.52;;;27.42;;
48588;SDS011;34369;51.174;6.738;2024-02-15T14:39:15;29.83;;;27.42;;
48588;SDS011;34369;51.174;6.738;2024-02-15T14:41:50;30.08;;;28.05;;
48588;SDS011;34369;51.174;6.738;2024-02-15T14:44:24;30.15;;;28.05;;
48588;SDS011;34369;51.174;6.738;2024-02-15T14:46:56;29.60;;;27.67;;
48588;SDS011;34369;51.174;6.738;2024-02-15T14:49:28;29.75;;;27.75;;
48588;SDS011;34369;51.174;6.738;2024-02-15T14:52:03;29.27;;;27.38;;
48588;SDS011;34369;51.174;6.738;2024-02-15T14:54:35;29.15;;;27.25;;
48588;SDS011;34369;51.174;6.738;2024-02-15T14:57:08;29.60;;;27.70;;
48588;SDS011;34369;51.174;6.738;2024-02-15T14:59:40;29.88;;;27.83;;
48588;SDS011;34369;51.174;6.738;2024-02-15T15:02:13;29.55;;;27.55;;
48588;SDS011;34369;51.174;6.738;2024-02-15T15:04:46;30.65;;;28.75;;
48588;SDS011;34369;51.174;6.738;2024-02-15T15:07:40;31.33;;;29.13;;
48588;SDS011;34369;51.174;6.738;2024-02-15T15:10:30;30.25;;;28.15;;